Accueil
METAR-TAF:

METAR-TAF

Aéroports :

Danbury Municipal Airport

Danbury, Connecticut, États-Unis

latitude: 41-22-18N, longitude: 073-29-04W, altitude: 139 m

Observation

Le bulletin a été fait il y a 1 heure et 4 minutes, à 04:49 UTC
Vent 8 kt de sud/sud-est avec des rafales jusqu'à 17 kt
Température 21°C
Humidité 94%
Pression 1003 hPa
Visibilité: 4.8 km
Ciel couvert à une hauteur de 1000 ft
pluie faible, brume

METAR: KDXR 300449Z AUTO 16008G17KT 3SM -RA BR OVC010 21/20 A2963 RMK AO2 SLP028 P0024 T02110200 402220183

Heure: 01:53 (05:53 UTC)


TAF: absent

Observations et prévisions météorologiques de plus de 4000 aéroports (messages METAR et TAF).

Les stations disponibles sont représentées par des disques jaunes et rouges sur la carte.

Passer la souris dessus pour voir le nom de la station.

Cliquer dessus pour voir les observations et prévisions météorologiques.

Pour changer de carte: cliquez sur les boutons verts avec une croix noire pour zoomer, sur le bouton vert avec un tiret pour effectuer un zoom arrière, ou sur les flèches vertes pour les cartes adjacentes.


METAR-TAF: